Time;durP1;ratioP1;P1;durP2;ratioP2;P2;SDS_P1;SDS_P2;PMS_P1;PMS_P2;Temp;Humidity;BMP_temperature;BMP_pressure;BME280_temperature;BME280_humidity;BME280_pressure;Samples;Min_cycle;Max_cycle;Signal;HPM_P1;HPM_P2
2022/04/11 00:00:48;;;;;;;3.58;1.70;;;;;;;;;;4925016;29;20371;-58
2022/04/11 00:03:13;;;;;;;4.25;1.63;;;;;;;;;;4926420;29;20080;-60
2022/04/11 00:05:39;;;;;;;5.40;2.10;;;;;;;;;;4927508;29;20039;-60
2022/04/11 00:08:04;;;;;;;3.53;1.55;;;;;;;;;;4926872;29;20337;-60
2022/04/11 00:10:30;;;;;;;4.00;2.00;;;;;;;;;;4930036;29;20027;-61
2022/04/11 00:13:02;;;;;;;2.00;1.40;;;;;;;;;;4927097;29;20024;-61
2022/04/11 00:15:28;;;;;;;2.38;1.33;;;;;;;;;;4922805;29;20089;-61
2022/04/11 00:17:53;;;;;;;8.70;1.90;;;;;;;;;;4929088;29;20099;-62
2022/04/11 00:20:19;;;;;;;3.63;1.90;;;;;;;;;;4931404;29;20108;-61
2022/04/11 00:22:44;;;;;;;6.82;1.95;;;;;;;;;;4927443;29;20170;-62
2022/04/11 00:25:09;;;;;;;2.70;1.65;;;;;;;;;;4925243;29;20047;-61
2022/04/11 00:27:35;;;;;;;4.03;1.50;;;;;;;;;;4926735;29;20027;-59
2022/04/11 00:30:00;;;;;;;3.70;1.67;;;;;;;;;;4928039;29;20333;-59
2022/04/11 00:32:25;;;;;;;6.00;2.15;;;;;;;;;;4928293;29;20095;-60
2022/04/11 00:34:51;;;;;;;6.45;1.88;;;;;;;;;;4928632;29;20032;-60
2022/04/11 00:37:17;;;;;;;3.67;1.42;;;;;;;;;;4928459;29;20050;-62
2022/04/11 00:39:43;;;;;;;4.07;1.40;;;;;;;;;;4923651;29;20039;-61
2022/04/11 00:42:15;;;;;;;3.53;1.38;;;;;;;;;;4928053;29;20028;-62
2022/04/11 00:44:41;;;;;;;3.10;1.63;;;;;;;;;;4925111;29;20130;-62
2022/04/11 00:47:06;;;;;;;4.82;1.67;;;;;;;;;;4929436;29;20040;-61
2022/04/11 00:49:32;;;;;;;3.63;1.92;;;;;;;;;;4923066;29;20294;-61
2022/04/11 00:51:57;;;;;;;3.97;1.55;;;;;;;;;;4926851;29;20032;-62
2022/04/11 00:54:27;;;;;;;3.63;1.50;;;;;;;;;;4926272;29;20040;-60
2022/04/11 00:56:54;;;;;;;2.47;1.63;;;;;;;;;;4925540;29;20028;-61
2022/04/11 00:59:20;;;;;;;2.55;1.70;;;;;;;;;;4925801;29;20043;-60
2022/04/11 01:01:46;;;;;;;3.47;1.80;;;;;;;;;;4924239;29;20066;-60
2022/04/11 01:04:23;;;;;;;2.58;1.50;;;;;;;;;;4928753;29;20032;-59
2022/04/11 01:06:58;;;;;;;3.95;1.48;;;;;;;;;;4923959;29;20423;-60
2022/04/11 01:09:24;;;;;;;3.65;1.40;;;;;;;;;;4925957;29;20035;-59
2022/04/11 01:11:50;;;;;;;3.15;1.52;;;;;;;;;;4923902;29;20043;-57
2022/04/11 01:14:16;;;;;;;2.75;1.45;;;;;;;;;;4925241;29;20071;-61
2022/04/11 01:16:50;;;;;;;6.22;1.60;;;;;;;;;;4925153;29;20214;-61
2022/04/11 01:19:16;;;;;;;2.53;1.70;;;;;;;;;;4923740;29;20041;-61
2022/04/11 01:21:47;;;;;;;4.03;1.40;;;;;;;;;;4925077;29;20047;-61
2022/04/11 01:24:15;;;;;;;1.98;1.63;;;;;;;;;;4924341;29;20054;-61
2022/04/11 01:26:42;;;;;;;2.22;1.52;;;;;;;;;;4923005;29;20059;-60
2022/04/11 01:29:08;;;;;;;4.22;1.55;;;;;;;;;;4925736;29;20194;-61
2022/04/11 01:31:34;;;;;;;6.88;1.70;;;;;;;;;;4926120;29;20140;-61
2022/04/11 01:34:00;;;;;;;5.50;1.80;;;;;;;;;;4924646;29;20032;-61
2022/04/11 01:36:25;;;;;;;3.50;1.77;;;;;;;;;;4927112;29;20111;-61
2022/04/11 01:38:51;;;;;;;3.17;1.60;;;;;;;;;;4927546;29;20040;-62
2022/04/11 01:41:16;;;;;;;4.13;1.60;;;;;;;;;;4926239;29;20070;-61
2022/04/11 01:43:42;;;;;;;4.80;1.80;;;;;;;;;;4925613;29;20422;-61
2022/04/11 01:46:07;;;;;;;4.00;1.73;;;;;;;;;;4926538;29;20051;-61
2022/04/11 01:48:33;;;;;;;2.67;1.50;;;;;;;;;;4924289;29;20109;-61
2022/04/11 01:50:58;;;;;;;4.70;1.90;;;;;;;;;;4926688;29;20035;-60
2022/04/11 01:53:23;;;;;;;2.40;1.60;;;;;;;;;;4927245;29;20040;-61
2022/04/11 01:55:49;;;;;;;2.40;1.70;;;;;;;;;;4923179;29;20036;-61
2022/04/11 01:58:15;;;;;;;5.00;1.98;;;;;;;;;;4930433;29;20032;-61
2022/04/11 02:00:42;;;;;;;4.80;1.75;;;;;;;;;;4926196;29;20036;-61
2022/04/11 02:03:09;;;;;;;4.32;1.70;;;;;;;;;;4924574;29;20103;-60
2022/04/11 02:05:35;;;;;;;4.60;1.70;;;;;;;;;;4924315;29;20040;-60
2022/04/11 02:08:03;;;;;;;3.95;2.30;;;;;;;;;;4924595;29;20050;-63
2022/04/11 02:10:29;;;;;;;4.80;1.90;;;;;;;;;;4926658;29;20274;-61
2022/04/11 02:12:55;;;;;;;6.03;2.30;;;;;;;;;;4923152;29;20108;-61
2022/04/11 02:15:20;;;;;;;3.92;1.80;;;;;;;;;;4925429;29;20054;-61
2022/04/11 02:17:46;;;;;;;4.07;2.20;;;;;;;;;;4924930;29;20036;-60
2022/04/11 02:20:12;;;;;;;3.65;1.80;;;;;;;;;;4926340;29;20059;-61
2022/04/11 02:22:49;;;;;;;5.95;1.70;;;;;;;;;;4924470;29;20024;-58
2022/04/11 02:25:15;;;;;;;2.75;1.80;;;;;;;;;;4924046;29;20032;-58
2022/04/11 02:27:41;;;;;;;4.97;1.70;;;;;;;;;;4923270;29;20045;-54
2022/04/11 02:30:08;;;;;;;3.58;1.95;;;;;;;;;;4927572;29;20044;-60
2022/04/11 02:32:33;;;;;;;3.85;2.03;;;;;;;;;;4924640;29;20067;-60
2022/04/11 02:34:59;;;;;;;4.13;1.90;;;;;;;;;;4925756;29;20027;-59
2022/04/11 02:37:25;;;;;;;4.20;2.10;;;;;;;;;;4926612;29;20043;-60
2022/04/11 02:39:50;;;;;;;3.20;1.90;;;;;;;;;;4925314;29;20024;-59
2022/04/11 02:42:27;;;;;;;3.47;1.83;;;;;;;;;;4920942;29;20255;-60
2022/04/11 02:44:52;;;;;;;4.55;1.90;;;;;;;;;;4924406;29;20089;-59
2022/04/11 02:47:19;;;;;;;3.50;2.13;;;;;;;;;;4926606;29;20036;-60
2022/04/11 02:49:45;;;;;;;3.47;2.13;;;;;;;;;;4925594;29;20028;-59
2022/04/11 02:52:11;;;;;;;3.17;1.73;;;;;;;;;;4925211;29;20144;-59
2022/04/11 02:54:37;;;;;;;4.80;1.83;;;;;;;;;;4924172;29;20028;-59
2022/04/11 02:57:02;;;;;;;3.67;1.88;;;;;;;;;;4925224;29;20039;-60
2022/04/11 02:59:28;;;;;;;4.63;2.00;;;;;;;;;;4923838;29;20055;-57
2022/04/11 03:01:54;;;;;;;2.97;2.00;;;;;;;;;;4924181;29;20316;-58
2022/04/11 03:04:20;;;;;;;5.30;2.35;;;;;;;;;;4928179;29;20043;-59
2022/04/11 03:06:46;;;;;;;4.75;2.20;;;;;;;;;;4925135;29;20148;-60
2022/04/11 03:09:11;;;;;;;8.82;2.33;;;;;;;;;;4924123;29;20091;-60
2022/04/11 03:11:36;;;;;;;5.38;2.40;;;;;;;;;;4928314;29;20031;-60
2022/04/11 03:14:02;;;;;;;3.35;1.98;;;;;;;;;;4922336;29;20059;-58
2022/04/11 03:16:28;;;;;;;5.25;2.17;;;;;;;;;;4923456;29;20036;-60
2022/04/11 03:18:53;;;;;;;4.70;2.00;;;;;;;;;;4924868;29;20068;-59
2022/04/11 03:21:19;;;;;;;4.05;1.98;;;;;;;;;;4923568;29;20040;-60
2022/04/11 03:23:44;;;;;;;7.68;2.35;;;;;;;;;;4926593;29;20220;-58
2022/04/11 03:26:09;;;;;;;3.67;2.63;;;;;;;;;;4924533;29;20062;-59
2022/04/11 03:28:35;;;;;;;4.45;1.80;;;;;;;;;;4922443;29;20035;-60
2022/04/11 03:31:00;;;;;;;6.75;2.33;;;;;;;;;;4927301;29;20043;-59
2022/04/11 03:33:26;;;;;;;7.53;2.05;;;;;;;;;;4926218;29;20043;-59
2022/04/11 03:35:51;;;;;;;4.45;2.38;;;;;;;;;;4922472;29;20028;-60
2022/04/11 03:38:17;;;;;;;5.28;2.50;;;;;;;;;;4923866;29;20060;-57
2022/04/11 03:40:42;;;;;;;4.47;2.58;;;;;;;;;;4923550;29;20028;-60
2022/04/11 03:43:09;;;;;;;5.82;2.30;;;;;;;;;;4922195;29;20024;-59
2022/04/11 03:45:34;;;;;;;5.47;2.58;;;;;;;;;;4924740;29;20044;-57
2022/04/11 03:47:59;;;;;;;4.82;2.38;;;;;;;;;;4926204;29;20059;-59
2022/04/11 03:50:25;;;;;;;5.63;2.75;;;;;;;;;;4923921;29;20040;-60
2022/04/11 03:52:50;;;;;;;4.22;2.42;;;;;;;;;;4922559;29;20039;-59
2022/04/11 03:55:16;;;;;;;4.35;2.60;;;;;;;;;;4923699;29;20342;-59
2022/04/11 03:57:41;;;;;;;4.78;2.60;;;;;;;;;;4922051;29;20042;-59
2022/04/11 04:00:07;;;;;;;5.30;2.45;;;;;;;;;;4926494;29;20028;-59
2022/04/11 04:02:33;;;;;;;6.47;2.83;;;;;;;;;;4923072;29;20028;-59
2022/04/11 04:04:58;;;;;;;5.45;2.50;;;;;;;;;;4925100;29;20038;-59
2022/04/11 04:07:23;;;;;;;7.32;3.10;;;;;;;;;;4923619;29;20027;-59
2022/04/11 04:09:49;;;;;;;8.43;3.10;;;;;;;;;;4923792;29;20027;-59
2022/04/11 04:12:19;;;;;;;5.03;2.67;;;;;;;;;;4925906;29;20075;-57
2022/04/11 04:14:44;;;;;;;3.53;2.60;;;;;;;;;;4928009;29;20024;-59
2022/04/11 04:17:09;;;;;;;5.70;2.72;;;;;;;;;;4930942;29;20043;-59
2022/04/11 04:19:35;;;;;;;4.78;2.75;;;;;;;;;;4928293;29;20039;-58
2022/04/11 04:22:00;;;;;;;7.00;3.00;;;;;;;;;;4924920;29;20043;-59
2022/04/11 04:24:25;;;;;;;6.03;2.45;;;;;;;;;;4926741;29;20031;-56
2022/04/11 04:26:51;;;;;;;5.28;2.58;;;;;;;;;;4925978;29;20043;-60
2022/04/11 04:29:16;;;;;;;4.45;2.55;;;;;;;;;;4928276;29;20317;-61
2022/04/11 04:31:43;;;;;;;6.43;3.17;;;;;;;;;;4927291;29;20297;-59
2022/04/11 04:34:08;;;;;;;4.97;2.78;;;;;;;;;;4926935;29;20061;-60
2022/04/11 04:36:34;;;;;;;7.80;3.42;;;;;;;;;;4922306;29;20044;-59
2022/04/11 04:39:00;;;;;;;4.20;2.95;;;;;;;;;;4926129;29;20024;-61
2022/04/11 04:41:26;;;;;;;5.85;3.28;;;;;;;;;;4926565;29;20309;-62
2022/04/11 04:43:52;;;;;;;6.63;3.20;;;;;;;;;;4926459;29;20046;-61
2022/04/11 04:46:17;;;;;;;7.18;3.28;;;;;;;;;;4928306;29;20450;-62
2022/04/11 04:48:42;;;;;;;8.38;3.33;;;;;;;;;;4925889;29;20092;-59
2022/04/11 04:51:08;;;;;;;5.25;3.30;;;;;;;;;;4930949;29;20068;-59
2022/04/11 04:53:34;;;;;;;7.30;3.78;;;;;;;;;;4929314;29;20862;-60
2022/04/11 04:55:59;;;;;;;8.20;3.30;;;;;;;;;;4925445;29;20131;-60
2022/04/11 04:58:24;;;;;;;7.65;3.30;;;;;;;;;;4926834;29;20046;-60
2022/04/11 05:00:50;;;;;;;10.18;4.03;;;;;;;;;;4927278;29;20024;-57
2022/04/11 05:03:15;;;;;;;6.50;3.38;;;;;;;;;;4929229;29;20043;-57
2022/04/11 05:05:40;;;;;;;6.72;3.75;;;;;;;;;;4926312;29;20035;-59
2022/04/11 05:08:06;;;;;;;10.20;3.50;;;;;;;;;;4923003;29;20288;-57
2022/04/11 05:10:32;;;;;;;11.25;3.78;;;;;;;;;;4926225;29;20036;-54
2022/04/11 05:12:57;;;;;;;8.20;3.50;;;;;;;;;;4923268;29;20306;-58
2022/04/11 05:15:23;;;;;;;6.90;3.72;;;;;;;;;;4926617;29;20081;-61
2022/04/11 05:17:49;;;;;;;9.93;3.88;;;;;;;;;;4926922;29;20042;-60
2022/04/11 05:20:14;;;;;;;8.73;3.42;;;;;;;;;;4930066;29;20044;-59
2022/04/11 05:22:40;;;;;;;10.52;3.80;;;;;;;;;;4926667;29;20032;-56
2022/04/11 05:25:06;;;;;;;10.50;4.32;;;;;;;;;;4926359;29;20104;-59
2022/04/11 05:27:32;;;;;;;6.63;3.88;;;;;;;;;;4926253;29;20338;-58
2022/04/11 05:29:57;;;;;;;6.60;4.03;;;;;;;;;;4925030;29;20028;-58
2022/04/11 05:32:22;;;;;;;10.38;3.90;;;;;;;;;;4927461;29;20057;-57
2022/04/11 05:34:48;;;;;;;5.82;4.15;;;;;;;;;;4927855;29;20032;-58
2022/04/11 05:37:13;;;;;;;8.35;4.20;;;;;;;;;;4926096;29;20048;-58
2022/04/11 05:39:39;;;;;;;7.53;3.90;;;;;;;;;;4927836;29;20032;-53
2022/04/11 05:42:06;;;;;;;10.60;4.22;;;;;;;;;;4925044;29;20099;-58
2022/04/11 05:44:31;;;;;;;11.30;4.30;;;;;;;;;;4925992;29;20688;-59
2022/04/11 05:46:57;;;;;;;10.32;4.60;;;;;;;;;;4925868;29;20035;-57
2022/04/11 05:49:22;;;;;;;9.23;4.65;;;;;;;;;;4925874;29;20175;-62
2022/04/11 05:51:48;;;;;;;8.10;4.43;;;;;;;;;;4926496;29;20119;-58
2022/04/11 05:54:14;;;;;;;9.32;4.70;;;;;;;;;;4924401;29;20055;-59
2022/04/11 05:56:40;;;;;;;8.77;4.32;;;;;;;;;;4925096;29;20060;-57
2022/04/11 05:59:08;;;;;;;7.93;4.03;;;;;;;;;;4926457;29;20036;-58
2022/04/11 06:01:33;;;;;;;11.30;4.47;;;;;;;;;;4924852;29;20040;-58
2022/04/11 06:03:58;;;;;;;7.85;4.25;;;;;;;;;;4924502;29;20043;-59
2022/04/11 06:06:24;;;;;;;13.82;4.82;;;;;;;;;;4925167;29;20309;-59
2022/04/11 06:08:51;;;;;;;7.07;4.03;;;;;;;;;;4924720;29;20091;-59
2022/04/11 06:11:16;;;;;;;9.00;4.85;;;;;;;;;;4927149;29;20028;-58
2022/04/11 06:13:45;;;;;;;9.80;4.57;;;;;;;;;;4926301;29;20031;-56
2022/04/11 06:16:13;;;;;;;6.90;3.85;;;;;;;;;;4923778;29;20067;-59
2022/04/11 06:18:39;;;;;;;9.70;4.25;;;;;;;;;;4924374;29;20031;-59
2022/04/11 06:21:05;;;;;;;10.80;4.70;;;;;;;;;;4927293;29;20098;-59
2022/04/11 06:23:30;;;;;;;9.65;3.97;;;;;;;;;;4927264;29;20111;-58
2022/04/11 06:25:56;;;;;;;8.32;4.30;;;;;;;;;;4925229;29;20067;-58
2022/04/11 06:28:22;;;;;;;10.88;4.55;;;;;;;;;;4925923;29;20039;-54
2022/04/11 06:30:47;;;;;;;11.13;5.07;;;;;;;;;;4925706;29;20038;-57
2022/04/11 06:33:12;;;;;;;8.55;4.80;;;;;;;;;;4923088;29;20036;-58
2022/04/11 06:35:38;;;;;;;8.48;4.40;;;;;;;;;;4921810;29;20039;-59
2022/04/11 06:38:03;;;;;;;13.18;4.80;;;;;;;;;;4926470;29;20042;-57
2022/04/11 06:40:29;;;;;;;14.50;4.82;;;;;;;;;;4924213;29;20042;-60
2022/04/11 06:42:54;;;;;;;11.48;4.95;;;;;;;;;;4923729;29;20028;-60
2022/04/11 06:45:19;;;;;;;11.18;4.63;;;;;;;;;;4920753;29;20067;-55
2022/04/11 06:47:47;;;;;;;16.10;5.28;;;;;;;;;;4924694;29;20036;-59
2022/04/11 06:50:14;;;;;;;18.42;5.70;;;;;;;;;;4925433;29;20087;-60
2022/04/11 06:52:39;;;;;;;14.90;5.25;;;;;;;;;;4920936;29;20032;-57
2022/04/11 06:55:05;;;;;;;13.23;5.45;;;;;;;;;;4924001;29;20067;-55
2022/04/11 06:57:31;;;;;;;19.92;5.63;;;;;;;;;;4922989;29;20051;-58
2022/04/11 06:59:56;;;;;;;15.48;5.70;;;;;;;;;;4925791;29;20251;-55
2022/04/11 07:02:21;;;;;;;18.42;6.07;;;;;;;;;;4921224;29;20063;-57
2022/04/11 07:04:47;;;;;;;23.42;6.45;;;;;;;;;;4924490;29;20028;-58
2022/04/11 07:07:12;;;;;;;16.70;5.70;;;;;;;;;;4926733;29;20024;-53
2022/04/11 07:09:38;;;;;;;18.95;6.00;;;;;;;;;;4922565;29;20036;-56
2022/04/11 07:12:04;;;;;;;14.63;6.35;;;;;;;;;;4924239;29;20039;-57
2022/04/11 07:14:29;;;;;;;14.50;5.53;;;;;;;;;;4925367;29;20295;-57
2022/04/11 07:16:54;;;;;;;28.88;5.53;;;;;;;;;;4925304;29;20028;-58
2022/04/11 07:19:20;;;;;;;8.35;4.65;;;;;;;;;;4924326;29;20221;-57
2022/04/11 07:21:46;;;;;;;13.52;3.92;;;;;;;;;;4923267;29;20323;-56
2022/04/11 07:24:12;;;;;;;10.95;4.20;;;;;;;;;;4916694;29;20696;-51
2022/04/11 07:26:39;;;;;;;12.43;4.63;;;;;;;;;;4921442;29;20040;-54
2022/04/11 07:29:04;;;;;;;8.77;3.90;;;;;;;;;;4922316;29;20079;-57
2022/04/11 07:31:29;;;;;;;7.88;3.58;;;;;;;;;;4925002;29;20315;-55
2022/04/11 07:33:55;;;;;;;9.82;3.10;;;;;;;;;;4924567;29;20036;-59
2022/04/11 07:36:21;;;;;;;6.53;3.20;;;;;;;;;;4924023;29;20052;-57
2022/04/11 07:38:46;;;;;;;9.55;2.80;;;;;;;;;;4922272;29;20275;-63
2022/04/11 07:41:12;;;;;;;14.95;3.03;;;;;;;;;;4922394;29;20032;-64
2022/04/11 07:43:37;;;;;;;5.13;2.33;;;;;;;;;;4922370;29;20049;-56
2022/04/11 07:46:05;;;;;;;6.20;2.55;;;;;;;;;;4931315;29;20410;-57
2022/04/11 07:48:33;;;;;;;6.57;2.88;;;;;;;;;;4929213;29;20092;-60
2022/04/11 07:50:58;;;;;;;5.43;2.83;;;;;;;;;;4926196;29;20268;-57
2022/04/11 07:53:24;;;;;;;3.42;2.40;;;;;;;;;;4926439;29;20035;-60
2022/04/11 07:55:49;;;;;;;9.57;3.38;;;;;;;;;;4926606;29;20183;-58
2022/04/11 07:58:16;;;;;;;4.50;2.92;;;;;;;;;;4931303;29;20794;-57
2022/04/11 08:00:42;;;;;;;8.85;3.10;;;;;;;;;;4921695;29;20082;-57
2022/04/11 08:03:08;;;;;;;5.45;2.88;;;;;;;;;;4927835;29;20096;-59
2022/04/11 08:05:33;;;;;;;5.40;2.88;;;;;;;;;;4927450;29;20906;-56
2022/04/11 08:07:59;;;;;;;6.90;2.80;;;;;;;;;;4928167;29;20133;-63
2022/04/11 08:10:25;;;;;;;7.68;2.85;;;;;;;;;;4929361;29;20118;-59
2022/04/11 08:12:56;;;;;;;9.55;3.15;;;;;;;;;;4927244;29;20024;-58
2022/04/11 08:15:22;;;;;;;6.68;2.78;;;;;;;;;;4926284;29;20043;-57
2022/04/11 08:17:48;;;;;;;7.68;2.95;;;;;;;;;;4928694;29;20024;-56
2022/04/11 08:20:14;;;;;;;6.47;2.53;;;;;;;;;;4930754;29;20222;-58
2022/04/11 08:22:40;;;;;;;5.05;2.58;;;;;;;;;;4928205;29;20035;-58
2022/04/11 08:25:05;;;;;;;4.88;2.75;;;;;;;;;;4928772;29;20102;-60
2022/04/11 08:27:31;;;;;;;6.50;2.95;;;;;;;;;;4924828;29;20114;-60
2022/04/11 08:29:56;;;;;;;8.38;2.50;;;;;;;;;;4928697;29;20042;-58
2022/04/11 08:32:21;;;;;;;3.60;2.50;;;;;;;;;;4926238;29;20237;-58
2022/04/11 08:34:47;;;;;;;6.60;2.95;;;;;;;;;;4923549;29;20035;-61
2022/04/11 08:37:12;;;;;;;4.88;3.30;;;;;;;;;;4927694;29;20036;-57
2022/04/11 08:39:38;;;;;;;6.90;3.10;;;;;;;;;;4930680;29;20266;-58
2022/04/11 08:42:03;;;;;;;5.97;3.03;;;;;;;;;;4925666;29;20083;-58
2022/04/11 08:44:30;;;;;;;7.75;2.80;;;;;;;;;;4931411;29;20104;-56
2022/04/11 08:47:01;;;;;;;4.28;2.63;;;;;;;;;;4925466;29;20279;-56
2022/04/11 08:49:28;;;;;;;4.25;2.70;;;;;;;;;;4924732;29;20036;-60
2022/04/11 08:51:54;;;;;;;5.40;2.67;;;;;;;;;;4928820;29;20222;-58
2022/04/11 08:54:20;;;;;;;8.30;2.70;;;;;;;;;;4928268;29;20067;-58
2022/04/11 08:56:45;;;;;;;5.82;2.55;;;;;;;;;;4927939;29;20027;-58
2022/04/11 08:59:11;;;;;;;7.40;2.65;;;;;;;;;;4923724;29;20079;-59
2022/04/11 09:01:36;;;;;;;8.65;2.58;;;;;;;;;;4925926;29;20024;-56
2022/04/11 09:04:02;;;;;;;5.40;2.55;;;;;;;;;;4926777;29;20032;-55
2022/04/11 09:06:31;;;;;;;5.97;2.53;;;;;;;;;;4928637;29;20042;-58
2022/04/11 09:08:57;;;;;;;3.72;2.08;;;;;;;;;;4926535;29;20028;-58
2022/04/11 09:11:35;;;;;;;4.47;2.08;;;;;;;;;;4924781;29;20361;-59
2022/04/11 09:14:05;;;;;;;6.13;2.08;;;;;;;;;;4926792;29;20039;-57
2022/04/11 09:16:49;;;;;;;5.20;2.38;;;;;;;;;;4925784;29;20091;-59
2022/04/11 09:19:31;;;;;;;4.25;1.95;;;;;;;;;;4930247;29;20032;-59
2022/04/11 09:21:57;;;;;;;5.70;2.63;;;;;;;;;;4928064;29;20182;-58
2022/04/11 09:24:26;;;;;;;3.60;2.08;;;;;;;;;;4925505;29;20043;-59
2022/04/11 09:26:54;;;;;;;7.65;2.40;;;;;;;;;;4925940;29;20117;-57
2022/04/11 09:29:20;;;;;;;4.43;2.28;;;;;;;;;;4925106;29;20032;-59
2022/04/11 09:31:45;;;;;;;6.88;2.33;;;;;;;;;;4925580;29;20036;-59
2022/04/11 09:34:21;;;;;;;10.82;2.50;;;;;;;;;;4929827;29;20040;-59
2022/04/11 09:36:49;;;;;;;7.43;2.40;;;;;;;;;;4924200;29;20075;-56
2022/04/11 09:39:19;;;;;;;6.60;1.98;;;;;;;;;;4922962;29;20055;-57
2022/04/11 09:41:49;;;;;;;3.67;1.80;;;;;;;;;;4922780;29;20036;-56
2022/04/11 09:44:28;;;;;;;4.70;1.48;;;;;;;;;;4930697;29;20047;-59
2022/04/11 09:46:55;;;;;;;2.15;1.50;;;;;;;;;;4926884;29;20032;-56
2022/04/11 09:49:21;;;;;;;2.63;1.42;;;;;;;;;;4924027;29;20036;-56
2022/04/11 09:52:02;;;;;;;2.50;1.70;;;;;;;;;;4925655;29;20084;-60
2022/04/11 09:54:29;;;;;;;2.20;1.63;;;;;;;;;;4928315;29;20032;-55
2022/04/11 09:56:57;;;;;;;2.50;1.45;;;;;;;;;;4923303;29;20035;-56
2022/04/11 09:59:23;;;;;;;3.85;1.50;;;;;;;;;;4923585;29;20054;-57
2022/04/11 10:01:51;;;;;;;2.88;1.42;;;;;;;;;;4925079;29;20408;-56
2022/04/11 10:04:20;;;;;;;5.38;1.67;;;;;;;;;;4924421;29;20035;-57
2022/04/11 10:06:46;;;;;;;4.50;1.77;;;;;;;;;;4929185;29;20028;-56
2022/04/11 10:09:13;;;;;;;5.63;1.92;;;;;;;;;;4924361;29;20127;-58
2022/04/11 10:11:41;;;;;;;4.32;1.70;;;;;;;;;;4928329;29;20040;-57
2022/04/11 10:14:23;;;;;;;2.25;1.33;;;;;;;;;;4927214;29;20055;-58
2022/04/11 10:16:51;;;;;;;3.53;1.58;;;;;;;;;;4922440;29;20099;-56
2022/04/11 10:19:22;;;;;;;2.97;1.73;;;;;;;;;;4926337;29;20120;-56
2022/04/11 10:21:48;;;;;;;3.45;1.40;;;;;;;;;;4921714;29;20063;-53
2022/04/11 10:24:22;;;;;;;2.65;1.50;;;;;;;;;;4924890;29;20024;-58
2022/04/11 10:26:54;;;;;;;5.45;2.33;;;;;;;;;;4927361;29;20125;-58
2022/04/11 10:29:38;;;;;;;3.47;1.48;;;;;;;;;;4924708;29;20043;-57
2022/04/11 10:32:07;;;;;;;2.63;1.00;;;;;;;;;;4921889;29;20044;-57
2022/04/11 10:34:49;;;;;;;2.88;1.30;;;;;;;;;;4926545;29;20040;-59
2022/04/11 10:37:16;;;;;;;1.48;1.02;;;;;;;;;;4926059;29;20028;-57
2022/04/11 10:39:43;;;;;;;1.98;1.30;;;;;;;;;;4922809;29;20103;-58
2022/04/11 10:42:11;;;;;;;1.48;0.95;;;;;;;;;;4926310;29;20305;-57
2022/04/11 10:44:50;;;;;;;3.45;1.02;;;;;;;;;;4924690;29;20028;-59
2022/04/11 10:47:16;;;;;;;4.22;1.20;;;;;;;;;;4923908;29;20032;-55
2022/04/11 10:49:50;;;;;;;4.50;1.38;;;;;;;;;;4925138;29;20063;-57
2022/04/11 10:52:28;;;;;;;2.08;1.10;;;;;;;;;;4928802;29;20197;-57
2022/04/11 10:54:55;;;;;;;2.83;1.10;;;;;;;;;;4922178;29;20024;-56
2022/04/11 10:57:51;;;;;;;4.80;1.30;;;;;;;;;;4926473;29;20297;-57
2022/04/11 11:00:43;;;;;;;2.58;1.58;;;;;;;;;;4926730;29;20036;-57
2022/04/11 11:03:13;;;;;;;2.47;1.30;;;;;;;;;;4923951;29;20035;-58
2022/04/11 11:05:48;;;;;;;3.85;1.30;;;;;;;;;;4925741;29;20124;-58
2022/04/11 11:08:14;;;;;;;3.58;1.70;;;;;;;;;;4923693;29;20390;-57
2022/04/11 11:10:52;;;;;;;9.20;1.85;;;;;;;;;;4927698;29;20040;-58
2022/04/11 11:13:36;;;;;;;29.48;2.78;;;;;;;;;;4923675;29;20035;-57
2022/04/11 11:16:21;;;;;;;11.18;2.05;;;;;;;;;;4927001;29;20032;-56
2022/04/11 11:18:50;;;;;;;6.18;1.65;;;;;;;;;;4922344;29;20040;-58
2022/04/11 11:21:27;;;;;;;3.88;1.40;;;;;;;;;;4928202;29;20072;-56
2022/04/11 11:24:02;;;;;;;2.85;1.40;;;;;;;;;;4927273;29;20185;-61
2022/04/11 11:26:46;;;;;;;4.68;1.60;;;;;;;;;;4930197;29;20039;-55
2022/04/11 11:29:19;;;;;;;4.18;1.63;;;;;;;;;;4929484;29;20127;-54
2022/04/11 11:31:46;;;;;;;6.20;2.25;;;;;;;;;;4926818;29;20253;-57
2022/04/11 11:34:13;;;;;;;5.75;1.70;;;;;;;;;;4930527;29;20214;-56
2022/04/11 11:36:41;;;;;;;3.05;1.70;;;;;;;;;;4930690;29;20028;-56
2022/04/11 11:39:29;;;;;;;2.35;1.63;;;;;;;;;;4929595;29;20039;-56
2022/04/11 11:41:59;;;;;;;4.50;1.70;;;;;;;;;;4928440;29;20270;-57
2022/04/11 11:44:24;;;;;;;5.05;1.35;;;;;;;;;;4927451;29;20250;-56
2022/04/11 11:46:54;;;;;;;3.75;1.52;;;;;;;;;;4924518;29;20032;-56
2022/04/11 11:49:24;;;;;;;4.13;2.03;;;;;;;;;;4925823;29;20041;-58
2022/04/11 11:51:50;;;;;;;4.22;1.92;;;;;;;;;;4928256;29;20032;-57
2022/04/11 11:54:36;;;;;;;5.05;1.70;;;;;;;;;;4922723;29;20032;-56
2022/04/11 11:57:03;;;;;;;3.53;1.80;;;;;;;;;;4929524;29;20039;-54
2022/04/11 11:59:29;;;;;;;3.30;1.80;;;;;;;;;;4924370;29;20047;-55
2022/04/11 12:04:39;;;;;;;5.07;2.08;;;;;;;;;;4927610;29;20307;-55
2022/04/11 12:07:06;;;;;;;3.03;2.08;;;;;;;;;;4927992;29;20042;-55
2022/04/11 12:09:39;;;;;;;4.15;1.90;;;;;;;;;;4924029;29;20028;-53
2022/04/11 12:12:06;;;;;;;4.47;1.95;;;;;;;;;;4923938;29;20036;-54
2022/04/11 12:15:06;;;;;;;3.80;1.70;;;;;;;;;;4925281;29;20035;-54
2022/04/11 12:17:36;;;;;;;3.13;1.83;;;;;;;;;;4905370;29;20137;-55
2022/04/11 12:20:15;;;;;;;6.82;1.90;;;;;;;;;;4927834;29;20031;-56
2022/04/11 12:22:59;;;;;;;5.38;2.05;;;;;;;;;;4927450;29;20036;-54
2022/04/11 12:25:29;;;;;;;5.20;2.25;;;;;;;;;;4928717;29;20107;-56
2022/04/11 12:28:18;;;;;;;5.03;2.22;;;;;;;;;;4947636;23;20248;-56
2022/04/11 12:30:50;;;;;;;8.77;2.35;;;;;;;;;;4931763;29;20064;-60
2022/04/11 12:33:36;;;;;;;4.28;2.20;;;;;;;;;;4935912;29;20064;-60
2022/04/11 12:36:04;;;;;;;4.65;2.22;;;;;;;;;;4936299;29;20042;-57
2022/04/11 12:38:44;;;;;;;4.55;2.35;;;;;;;;;;4936601;29;20039;-56
2022/04/11 12:41:34;;;;;;;7.30;2.30;;;;;;;;;;4934260;29;20396;-58
2022/04/11 12:44:09;;;;;;;3.33;1.95;;;;;;;;;;4933673;29;20035;-57
2022/04/11 12:46:38;;;;;;;2.80;1.60;;;;;;;;;;4937688;29;20023;-57
2022/04/11 12:49:05;;;;;;;5.13;1.90;;;;;;;;;;4936460;29;20039;-60
2022/04/11 12:51:31;;;;;;;4.07;2.30;;;;;;;;;;4932606;29;20273;-55
2022/04/11 12:54:12;;;;;;;4.15;1.90;;;;;;;;;;4935651;29;20027;-63
2022/04/11 12:56:46;;;;;;;3.80;1.60;;;;;;;;;;4932669;29;20083;-64
2022/04/11 12:59:29;;;;;;;4.32;1.67;;;;;;;;;;4932924;29;20114;-58
2022/04/11 13:02:07;;;;;;;4.15;2.08;;;;;;;;;;4927673;29;20320;-60
2022/04/11 13:04:41;;;;;;;3.22;1.65;;;;;;;;;;4938066;29;20337;-54
2022/04/11 13:07:09;;;;;;;4.15;1.98;;;;;;;;;;4932953;29;20024;-57
2022/04/11 13:09:35;;;;;;;7.68;1.90;;;;;;;;;;4935805;29;20106;-58
2022/04/11 13:12:01;;;;;;;5.20;1.95;;;;;;;;;;4932470;29;20054;-57
2022/04/11 13:14:30;;;;;;;3.80;2.05;;;;;;;;;;4934077;29;20104;-56
2022/04/11 13:19:39;;;;;;;4.80;1.70;;;;;;;;;;4925528;29;20035;-56
2022/04/11 13:22:05;;;;;;;4.63;1.88;;;;;;;;;;4936755;29;20301;-59
2022/04/11 13:24:31;;;;;;;5.38;2.35;;;;;;;;;;4934389;29;20066;-57
2022/04/11 13:26:58;;;;;;;7.18;2.20;;;;;;;;;;4935478;29;20194;-59
2022/04/11 13:29:23;;;;;;;6.18;2.03;;;;;;;;;;4930850;29;20032;-59
2022/04/11 13:31:49;;;;;;;3.80;1.98;;;;;;;;;;4931494;29;20047;-59
2022/04/11 13:34:15;;;;;;;5.30;1.75;;;;;;;;;;4929988;29;20312;-60
2022/04/11 13:36:40;;;;;;;4.68;2.40;;;;;;;;;;4929690;29;20039;-61
2022/04/11 13:39:06;;;;;;;3.13;1.60;;;;;;;;;;4928358;29;20031;-59
2022/04/11 13:41:33;;;;;;;5.32;2.17;;;;;;;;;;4933201;29;20073;-59
2022/04/11 13:44:00;;;;;;;7.85;2.03;;;;;;;;;;4931388;29;20092;-61
2022/04/11 13:46:26;;;;;;;6.60;2.33;;;;;;;;;;4932102;29;20033;-59
2022/04/11 13:48:54;;;;;;;3.20;1.65;;;;;;;;;;4932773;29;20023;-58
2022/04/11 13:51:20;;;;;;;2.95;1.80;;;;;;;;;;4936929;29;20058;-59
2022/04/11 13:53:46;;;;;;;3.33;2.00;;;;;;;;;;4932601;29;20033;-59
2022/04/11 13:56:11;;;;;;;2.83;1.55;;;;;;;;;;4932151;29;20060;-58
2022/04/11 13:58:37;;;;;;;4.43;1.90;;;;;;;;;;4944159;29;20042;-59
2022/04/11 14:01:04;;;;;;;3.45;1.92;;;;;;;;;;4938130;29;20055;-58
2022/04/11 14:03:30;;;;;;;5.50;2.10;;;;;;;;;;4936639;29;20088;-57
2022/04/11 14:05:56;;;;;;;3.08;1.83;;;;;;;;;;4936696;29;20028;-60
2022/04/11 14:08:23;;;;;;;4.25;1.70;;;;;;;;;;4933316;29;20043;-59
2022/04/11 14:10:50;;;;;;;3.97;1.63;;;;;;;;;;4932541;29;20226;-58
2022/04/11 14:13:15;;;;;;;3.90;1.65;;;;;;;;;;4934935;29;20032;-60
2022/04/11 14:15:41;;;;;;;2.47;1.30;;;;;;;;;;4930222;29;20050;-58
2022/04/11 14:18:06;;;;;;;3.47;1.45;;;;;;;;;;4936616;29;20056;-58
2022/04/11 14:20:32;;;;;;;2.90;1.40;;;;;;;;;;4929470;29;20057;-57
2022/04/11 14:22:58;;;;;;;2.95;1.25;;;;;;;;;;4931448;29;20034;-56
2022/04/11 14:25:25;;;;;;;2.33;1.30;;;;;;;;;;4931156;29;20032;-56
2022/04/11 14:27:51;;;;;;;3.53;1.13;;;;;;;;;;4939276;29;20186;-57
2022/04/11 14:30:16;;;;;;;2.25;1.30;;;;;;;;;;4930775;29;20028;-58
2022/04/11 14:32:42;;;;;;;3.88;1.40;;;;;;;;;;4930847;29;20225;-58
2022/04/11 14:35:07;;;;;;;3.03;1.40;;;;;;;;;;4928499;29;20062;-59
2022/04/11 14:37:33;;;;;;;2.00;1.10;;;;;;;;;;4935360;29;20382;-58
2022/04/11 14:39:58;;;;;;;1.85;1.20;;;;;;;;;;4932101;29;20036;-58
2022/04/11 14:42:24;;;;;;;1.83;1.25;;;;;;;;;;4934814;29;20063;-58
2022/04/11 14:44:49;;;;;;;2.28;1.20;;;;;;;;;;4934863;29;20058;-59
2022/04/11 14:47:15;;;;;;;2.63;1.02;;;;;;;;;;4928876;29;20265;-56
2022/04/11 14:49:40;;;;;;;2.40;1.05;;;;;;;;;;4935691;29;20102;-53